createdAt,value
2019-03-21T00:02:07.362Z,30.73
2019-03-21T00:04:38.093Z,32.43
2019-03-21T00:07:08.861Z,33.20
2019-03-21T00:09:39.958Z,29.60
2019-03-21T00:12:11.577Z,27.43
2019-03-21T00:14:59.252Z,32.17
2019-03-21T00:17:42.903Z,33.70
2019-03-21T00:20:17.075Z,30.13
2019-03-21T00:22:47.442Z,35.87
2019-03-21T00:25:25.173Z,32.43
2019-03-21T00:27:55.549Z,31.80
2019-03-21T00:30:27.556Z,38.93
2019-03-21T00:32:58.490Z,31.77
2019-03-21T00:35:28.865Z,35.13
2019-03-21T00:37:59.471Z,31.30
2019-03-21T00:40:37.001Z,33.40
2019-03-21T00:43:11.042Z,36.10
2019-03-21T00:45:41.656Z,32.67
2019-03-21T00:48:16.338Z,36.07
2019-03-21T00:50:46.954Z,27.43
2019-03-21T00:53:17.718Z,36.43
2019-03-21T00:55:53.784Z,32.57
2019-03-21T00:58:24.196Z,36.93
2019-03-21T01:01:02.329Z,33.10
2019-03-21T01:03:32.753Z,30.30
2019-03-21T01:06:03.124Z,30.03
2019-03-21T01:08:33.890Z,34.53
2019-03-21T01:11:04.823Z,33.80
2019-03-21T01:13:40.842Z,44.53
2019-03-21T01:16:11.810Z,32.70
2019-03-21T01:18:46.421Z,32.53
2019-03-21T01:21:16.843Z,38.60
2019-03-21T01:23:47.226Z,36.13
2019-03-21T01:26:17.596Z,35.00
2019-03-21T01:28:48.107Z,40.13
2019-03-21T01:31:19.123Z,37.97
2019-03-21T01:33:49.563Z,40.90
2019-03-21T01:36:23.209Z,41.60
2019-03-21T01:38:53.851Z,42.70
2019-03-21T01:41:24.537Z,35.07
2019-03-21T01:43:55.478Z,42.30
2019-03-21T01:46:27.515Z,36.33
2019-03-21T01:48:57.976Z,41.30
2019-03-21T01:51:28.714Z,52.77
2019-03-21T01:53:59.065Z,39.40
2019-03-21T01:56:31.772Z,44.23
2019-03-21T01:59:02.905Z,41.07
2019-03-21T02:01:33.593Z,52.27
2019-03-21T02:04:04.618Z,41.63
2019-03-21T02:06:35.365Z,38.17
2019-03-21T02:09:08.188Z,44.73
2019-03-21T02:11:38.957Z,46.93
2019-03-21T02:14:10.351Z,47.60
2019-03-21T02:16:41.697Z,40.70
2019-03-21T02:19:12.431Z,47.03
2019-03-21T02:21:42.914Z,40.40
2019-03-21T02:24:13.593Z,41.33
2019-03-21T02:26:45.061Z,46.07
2019-03-21T02:29:16.012Z,42.60
2019-03-21T02:31:46.364Z,50.90
2019-03-21T02:34:16.702Z,44.43
2019-03-21T02:36:47.510Z,46.50
2019-03-21T02:39:17.853Z,49.73
2019-03-21T02:41:49.062Z,47.63
2019-03-21T02:44:19.767Z,43.80
2019-03-21T02:46:50.314Z,46.30
2019-03-21T02:49:20.690Z,48.23
2019-03-21T02:51:51.400Z,50.23
2019-03-21T02:54:21.784Z,48.67
2019-03-21T02:56:52.461Z,49.93
2019-03-21T02:59:23.279Z,50.50
2019-03-21T03:01:53.643Z,51.87
2019-03-21T03:04:24.005Z,46.00
2019-03-21T03:06:54.402Z,49.70
2019-03-21T03:09:24.740Z,48.80
2019-03-21T03:11:55.081Z,47.47
2019-03-21T03:14:45.256Z,51.70
2019-03-21T03:17:15.627Z,45.30
2019-03-21T03:19:46.399Z,55.30
2019-03-21T03:22:17.089Z,48.50
2019-03-21T03:24:47.725Z,44.17
2019-03-21T03:27:18.541Z,45.80
2019-03-21T03:29:49.634Z,45.60
2019-03-21T03:32:19.985Z,43.67
2019-03-21T03:34:51.003Z,49.20
2019-03-21T03:37:21.373Z,53.10
2019-03-21T03:39:52.051Z,42.37
2019-03-21T03:42:22.423Z,44.63
2019-03-21T03:44:53.124Z,50.73
2019-03-21T03:47:24.173Z,41.80
2019-03-21T03:49:54.885Z,49.90
2019-03-21T03:52:25.635Z,42.07
2019-03-21T03:54:56.270Z,44.63
2019-03-21T03:57:27.010Z,48.10
2019-03-21T03:59:57.818Z,47.00
2019-03-21T04:02:28.190Z,42.97
2019-03-21T04:04:58.550Z,40.17
2019-03-21T04:07:29.741Z,48.80
2019-03-21T04:10:00.231Z,43.83
2019-03-21T04:12:30.861Z,46.73
2019-03-21T04:15:01.248Z,44.17
2019-03-21T04:17:31.876Z,42.90
2019-03-21T04:20:02.243Z,42.70
2019-03-21T04:22:32.635Z,39.60
2019-03-21T04:25:03.400Z,45.60
2019-03-21T04:27:34.306Z,46.90
2019-03-21T04:30:12.947Z,55.63
2019-03-21T04:32:43.289Z,52.47
2019-03-21T04:35:14.572Z,49.23
2019-03-21T04:37:45.653Z,41.03
2019-03-21T04:40:20.374Z,36.03
2019-03-21T04:42:51.435Z,37.57
2019-03-21T04:45:25.012Z,43.37
2019-03-21T04:47:55.658Z,42.07
2019-03-21T04:50:33.238Z,45.67
2019-03-21T04:53:03.601Z,39.60
2019-03-21T04:55:33.935Z,37.20
2019-03-21T04:58:04.627Z,35.80
2019-03-21T05:01:02.833Z,40.20
2019-03-21T05:03:34.155Z,44.80
2019-03-21T05:06:04.953Z,43.63
2019-03-21T05:08:35.652Z,42.10
2019-03-21T05:11:06.027Z,38.33
2019-03-21T05:13:36.688Z,36.47
2019-03-21T05:16:14.656Z,38.50
2019-03-21T05:18:50.459Z,37.13
2019-03-21T05:21:24.466Z,42.90
2019-03-21T05:23:54.832Z,35.63
2019-03-21T05:26:25.233Z,48.20
2019-03-21T05:28:56.387Z,49.77
2019-03-21T05:31:52.043Z,41.53
2019-03-21T05:34:23.015Z,38.67
2019-03-21T05:36:53.682Z,44.20
2019-03-21T05:39:24.725Z,42.10
2019-03-21T05:41:55.094Z,34.93
2019-03-21T05:44:33.055Z,47.73
2019-03-21T05:47:03.423Z,43.50
2019-03-21T05:49:34.037Z,39.20
2019-03-21T05:52:04.844Z,39.40
2019-03-21T05:54:35.577Z,44.27
2019-03-21T05:57:06.327Z,38.60
2019-03-21T05:59:37.025Z,35.30
2019-03-21T06:02:07.704Z,43.67
2019-03-21T06:04:38.081Z,38.70
2019-03-21T06:07:25.379Z,41.60
2019-03-21T06:09:55.815Z,41.30
2019-03-21T06:12:26.524Z,45.83
2019-03-21T06:15:01.444Z,41.13
2019-03-21T06:17:32.536Z,45.57
2019-03-21T06:20:23.101Z,44.20
2019-03-21T06:23:01.398Z,43.10
2019-03-21T06:26:03.777Z,44.40
2019-03-21T06:28:34.112Z,40.77
2019-03-21T06:31:05.230Z,51.60
2019-03-21T06:33:35.610Z,45.87
2019-03-21T06:36:05.953Z,45.03
2019-03-21T06:38:36.691Z,46.27
2019-03-21T06:41:07.154Z,43.43
2019-03-21T06:43:38.244Z,47.77
2019-03-21T06:46:09.664Z,46.37
2019-03-21T06:48:40.089Z,48.13
2019-03-21T06:51:10.460Z,55.17
2019-03-21T06:53:41.583Z,42.37
2019-03-21T06:56:12.626Z,39.80
2019-03-21T06:58:43.008Z,41.73
2019-03-21T07:01:13.662Z,55.80
2019-03-21T07:03:44.080Z,47.33
2019-03-21T07:06:14.848Z,43.57
2019-03-21T07:08:45.489Z,41.10
2019-03-21T07:11:15.867Z,37.60
2019-03-21T07:13:46.219Z,42.47
2019-03-21T07:16:16.932Z,43.73
2019-03-21T07:18:47.878Z,40.77
2019-03-21T07:21:18.599Z,43.40
2019-03-21T07:23:49.341Z,46.00
2019-03-21T07:26:20.095Z,48.80
2019-03-21T07:28:50.470Z,44.90
2019-03-21T07:31:21.189Z,42.93
2019-03-21T07:33:52.868Z,51.30
2019-03-21T07:36:26.156Z,38.37
2019-03-21T07:38:55.984Z,42.10
2019-03-21T07:41:26.379Z,41.90
2019-03-21T07:43:57.007Z,42.57
2019-03-21T07:46:28.067Z,47.73
2019-03-21T07:48:59.518Z,41.80
2019-03-21T07:51:30.976Z,49.33
2019-03-21T07:54:01.349Z,39.67
2019-03-21T07:56:32.025Z,43.93
2019-03-21T07:59:02.774Z,41.37
2019-03-21T08:01:33.141Z,39.67
2019-03-21T08:04:03.815Z,45.70
2019-03-21T08:06:34.864Z,37.90
2019-03-21T08:09:07.421Z,45.87
2019-03-21T08:11:38.074Z,46.93
2019-03-21T08:14:08.690Z,44.63
2019-03-21T08:16:39.660Z,47.27
2019-03-21T08:19:10.362Z,52.07
2019-03-21T08:21:40.737Z,53.03
2019-03-21T08:24:11.457Z,50.40
2019-03-21T08:26:42.278Z,47.23
2019-03-21T08:29:12.615Z,46.30
2019-03-21T08:31:43.362Z,49.37
2019-03-21T08:34:13.754Z,49.33
2019-03-21T08:36:45.517Z,57.93
2019-03-21T08:39:15.858Z,53.77
2019-03-21T08:41:46.246Z,47.70
2019-03-21T08:44:16.883Z,52.20
2019-03-21T08:46:47.618Z,51.10
2019-03-21T08:49:18.064Z,50.03
2019-03-21T08:51:48.702Z,48.50
2019-03-21T08:54:19.976Z,55.10
2019-03-21T08:56:50.705Z,42.83
2019-03-21T08:59:21.944Z,41.70
2019-03-21T09:01:52.321Z,46.30
2019-03-21T09:04:23.651Z,53.20
2019-03-21T09:06:54.417Z,45.63
2019-03-21T09:09:25.061Z,44.50
2019-03-21T09:11:55.723Z,46.53
2019-03-21T09:14:26.068Z,45.10
2019-03-21T09:16:57.111Z,40.17
2019-03-21T09:19:27.895Z,42.67
2019-03-21T09:21:58.269Z,42.80
2019-03-21T09:24:29.173Z,40.17
2019-03-21T09:26:59.579Z,40.10
2019-03-21T09:29:30.586Z,39.53
2019-03-21T09:32:01.333Z,40.77
2019-03-21T09:34:32.254Z,42.67
2019-03-21T09:37:04.104Z,34.03
2019-03-21T09:39:34.688Z,33.27
2019-03-21T09:42:05.037Z,35.97
2019-03-21T09:44:35.716Z,39.37
2019-03-21T09:47:06.475Z,38.30
2019-03-21T09:49:36.850Z,29.80
2019-03-21T09:52:07.454Z,33.93
2019-03-21T09:54:38.155Z,32.40
2019-03-21T09:57:08.526Z,25.23
2019-03-21T09:59:38.912Z,25.00
2019-03-21T10:02:09.273Z,27.17
2019-03-21T10:04:39.618Z,25.23
2019-03-21T10:07:10.072Z,26.17
2019-03-21T10:09:40.779Z,27.00
2019-03-21T10:12:11.188Z,25.07
2019-03-21T10:14:41.930Z,27.50
2019-03-21T10:17:12.399Z,25.97
2019-03-21T10:19:42.772Z,27.20
2019-03-21T10:22:14.223Z,28.70
2019-03-21T10:24:45.296Z,28.37
2019-03-21T10:27:15.967Z,23.10
2019-03-21T10:29:46.506Z,25.60
2019-03-21T10:32:17.498Z,29.40
2019-03-21T10:34:48.202Z,29.50
2019-03-21T10:37:19.323Z,31.90
2019-03-21T10:39:49.710Z,27.30
2019-03-21T10:42:20.094Z,30.07
2019-03-21T10:44:50.498Z,30.37
2019-03-21T10:47:21.676Z,33.27
2019-03-21T10:49:52.728Z,32.20
2019-03-21T10:52:23.128Z,28.13
2019-03-21T10:54:54.226Z,30.70
2019-03-21T10:57:24.982Z,29.07
2019-03-21T10:59:55.808Z,28.30
2019-03-21T11:02:26.155Z,27.07
2019-03-21T11:04:56.531Z,26.07
2019-03-21T11:07:27.296Z,29.57
2019-03-21T11:09:58.238Z,25.57
2019-03-21T11:12:28.611Z,27.07
2019-03-21T11:14:59.298Z,28.53
2019-03-21T11:17:29.656Z,31.40
2019-03-21T11:20:00.365Z,24.50
2019-03-21T11:22:31.062Z,22.77
2019-03-21T11:25:01.784Z,21.20
2019-03-21T11:27:32.418Z,21.43
2019-03-21T11:30:02.876Z,21.73
2019-03-21T11:32:33.226Z,20.60
2019-03-21T11:35:05.509Z,20.13
2019-03-21T11:37:35.992Z,20.20
2019-03-21T11:40:06.881Z,23.03
2019-03-21T11:42:37.983Z,25.83
2019-03-21T11:45:09.033Z,25.30
2019-03-21T11:47:42.205Z,24.83
2019-03-21T11:50:11.965Z,23.30
2019-03-21T11:52:43.359Z,28.97
2019-03-21T11:55:14.193Z,21.27
2019-03-21T11:57:44.575Z,23.77
2019-03-21T12:00:16.496Z,24.43
2019-03-21T12:02:47.453Z,23.53
2019-03-21T12:05:17.825Z,24.30
2019-03-21T12:07:48.204Z,20.60
2019-03-21T12:10:18.552Z,22.50
2019-03-21T12:12:49.867Z,25.23
2019-03-21T12:15:20.585Z,26.60
2019-03-21T12:17:51.860Z,30.67
2019-03-21T12:20:33.510Z,28.73
2019-03-21T12:23:04.218Z,25.87
2019-03-21T12:25:34.586Z,24.53
2019-03-21T12:28:05.009Z,24.10
2019-03-21T12:30:38.336Z,26.70
2019-03-21T12:33:09.094Z,26.70
2019-03-21T12:35:40.244Z,26.27
2019-03-21T12:38:10.597Z,23.37
2019-03-21T12:40:41.381Z,22.27
2019-03-21T12:43:12.155Z,24.73
2019-03-21T12:45:42.507Z,23.67
2019-03-21T12:48:13.209Z,27.50
2019-03-21T12:50:44.658Z,29.27
2019-03-21T12:53:16.071Z,33.33
2019-03-21T12:55:46.845Z,31.40
2019-03-21T12:58:17.191Z,28.47
2019-03-21T13:00:47.831Z,28.77
2019-03-21T13:03:18.232Z,29.83
2019-03-21T13:05:49.337Z,29.70
2019-03-21T13:08:19.736Z,31.13
2019-03-21T13:10:50.413Z,29.23
2019-03-21T13:13:21.173Z,28.50
2019-03-21T13:15:51.803Z,34.53
2019-03-21T13:18:22.460Z,28.43
2019-03-21T13:20:52.812Z,36.30
2019-03-21T13:23:23.232Z,37.57
2019-03-21T13:25:54.003Z,35.67
2019-03-21T13:28:24.381Z,41.03
2019-03-21T13:30:54.759Z,35.90
2019-03-21T13:33:25.176Z,35.30
2019-03-21T13:35:55.856Z,38.00
2019-03-21T13:38:26.595Z,37.53
2019-03-21T13:40:57.371Z,40.50
2019-03-21T13:43:27.826Z,32.70
2019-03-21T13:45:59.045Z,32.70
2019-03-21T13:48:30.146Z,38.73
2019-03-21T13:51:00.889Z,36.50
2019-03-21T13:53:31.232Z,37.00
2019-03-21T13:56:02.777Z,37.93
2019-03-21T13:58:33.412Z,37.83
2019-03-21T14:01:03.846Z,43.20
2019-03-21T14:03:34.984Z,42.00
2019-03-21T14:06:05.728Z,34.60
2019-03-21T14:08:36.464Z,41.17
2019-03-21T14:11:06.890Z,41.33
2019-03-21T14:13:37.596Z,38.75
2019-03-21T14:16:08.258Z,33.83
2019-03-21T14:18:38.648Z,36.77
2019-03-21T14:21:09.010Z,38.37
2019-03-21T14:23:43.452Z,37.10
2019-03-21T14:26:12.149Z,40.47
2019-03-21T14:28:42.855Z,41.27
2019-03-21T14:31:13.998Z,38.97
2019-03-21T14:33:44.758Z,38.07
2019-03-21T14:36:15.664Z,38.73
2019-03-21T14:38:46.279Z,45.83
2019-03-21T14:41:17.091Z,38.70
2019-03-21T14:43:47.797Z,42.23
2019-03-21T14:46:18.504Z,48.20
2019-03-21T14:48:48.871Z,42.83
2019-03-21T14:51:19.806Z,41.97
2019-03-21T14:53:51.036Z,45.17
2019-03-21T14:56:21.743Z,40.37
2019-03-21T14:58:52.407Z,44.07
2019-03-21T15:01:23.044Z,40.70
2019-03-21T15:03:53.840Z,46.93
2019-03-21T15:06:24.524Z,47.30
2019-03-21T15:08:55.242Z,40.20
2019-03-21T15:11:26.602Z,44.10
2019-03-21T15:13:57.317Z,43.77
2019-03-21T15:16:28.062Z,45.60
2019-03-21T15:18:58.453Z,47.20
2019-03-21T15:21:29.150Z,43.87
2019-03-21T15:24:00.050Z,44.33
2019-03-21T15:26:30.973Z,49.87
2019-03-21T15:29:01.737Z,45.27
2019-03-21T15:31:32.581Z,49.93
2019-03-21T15:34:02.956Z,46.50
2019-03-21T15:36:33.709Z,49.40
2019-03-21T15:39:07.511Z,47.80
2019-03-21T15:41:39.018Z,51.90
2019-03-21T15:44:09.370Z,44.93
2019-03-21T15:46:40.036Z,51.97
2019-03-21T15:49:10.686Z,53.80
2019-03-21T15:51:41.346Z,47.23
2019-03-21T15:54:11.963Z,42.23
2019-03-21T15:56:42.796Z,55.83
2019-03-21T15:59:13.522Z,47.50
2019-03-21T16:01:44.578Z,51.23
2019-03-21T16:04:15.321Z,47.67
2019-03-21T16:06:46.074Z,51.23
2019-03-21T16:09:16.788Z,46.80
2019-03-21T16:11:47.223Z,48.07
2019-03-21T16:14:17.696Z,49.33
2019-03-21T16:16:48.044Z,57.27
2019-03-21T16:19:18.908Z,53.20
2019-03-21T16:21:49.651Z,48.13
2019-03-21T16:24:20.310Z,46.90
2019-03-21T16:26:50.765Z,49.70
2019-03-21T16:29:21.484Z,46.07
2019-03-21T16:31:52.185Z,53.50
2019-03-21T16:34:22.571Z,53.33
2019-03-21T16:36:53.250Z,51.87
2019-03-21T16:39:23.882Z,46.87
2019-03-21T16:41:54.644Z,60.50
2019-03-21T16:44:25.684Z,50.13
2019-03-21T16:46:56.932Z,49.90
2019-03-21T16:49:28.065Z,47.47
2019-03-21T16:51:58.926Z,57.03
2019-03-21T16:54:30.408Z,52.27
2019-03-21T16:57:00.874Z,59.30
2019-03-21T16:59:31.542Z,65.70
2019-03-21T17:02:01.912Z,55.10
2019-03-21T17:04:32.618Z,45.83
2019-03-21T17:07:02.988Z,54.90
2019-03-21T17:09:33.333Z,68.20
2019-03-21T17:12:03.760Z,64.80
2019-03-21T17:14:34.107Z,62.27
2019-03-21T17:17:04.502Z,55.83
2019-03-21T17:19:35.313Z,58.57
2019-03-21T17:22:06.024Z,55.60
2019-03-21T17:24:36.379Z,60.13
2019-03-21T17:27:07.459Z,59.77
2019-03-21T17:29:38.513Z,63.17
2019-03-21T17:32:08.878Z,59.70
2019-03-21T17:34:39.555Z,59.27
2019-03-21T17:37:09.903Z,60.40
2019-03-21T17:39:40.273Z,67.93
2019-03-21T17:42:11.165Z,64.13
2019-03-21T17:44:41.515Z,59.80
2019-03-21T17:47:12.300Z,58.53
2019-03-21T17:49:42.719Z,62.40
2019-03-21T17:52:13.389Z,57.20
2019-03-21T17:54:44.029Z,54.57
2019-03-21T17:57:15.041Z,66.27
2019-03-21T17:59:45.453Z,66.30
2019-03-21T18:02:16.146Z,60.77
2019-03-21T18:04:46.886Z,66.13
2019-03-21T18:07:17.599Z,64.17
2019-03-21T18:09:47.959Z,56.50
2019-03-21T18:12:18.377Z,68.53
2019-03-21T18:14:49.493Z,68.57
2019-03-21T18:17:19.962Z,67.13
2019-03-21T18:19:50.783Z,72.20
2019-03-21T18:22:21.489Z,68.33
2019-03-21T18:24:54.055Z,83.60
2019-03-21T18:27:24.238Z,80.60
2019-03-21T18:29:54.590Z,79.60
2019-03-21T18:32:25.410Z,71.27
2019-03-21T18:34:56.057Z,73.10
2019-03-21T18:37:26.741Z,75.40
2019-03-21T18:39:57.350Z,71.07
2019-03-21T18:42:28.463Z,78.30
2019-03-21T18:44:58.821Z,80.90
2019-03-21T18:47:29.797Z,83.67
2019-03-21T18:50:01.880Z,80.67
2019-03-21T18:52:32.512Z,67.70
2019-03-21T18:55:06.542Z,81.50
2019-03-21T18:57:35.829Z,74.60
2019-03-21T19:00:11.354Z,68.97
2019-03-21T19:02:41.757Z,62.57
2019-03-21T19:05:12.527Z,72.00
2019-03-21T19:07:42.908Z,67.70
2019-03-21T19:10:15.354Z,82.37
2019-03-21T19:12:45.739Z,74.20
2019-03-21T19:15:19.576Z,79.87
2019-03-21T19:17:50.531Z,69.85
2019-03-21T19:20:21.264Z,72.20
2019-03-21T19:22:52.001Z,67.70
2019-03-21T19:25:22.716Z,73.07
2019-03-21T19:27:53.494Z,77.55
2019-03-21T19:30:24.901Z,64.77
2019-03-21T19:32:55.555Z,77.70
2019-03-21T19:35:26.162Z,69.97
2019-03-21T19:37:56.541Z,76.43
2019-03-21T19:40:26.886Z,77.00
2019-03-21T19:42:57.353Z,73.30
2019-03-21T19:45:27.963Z,65.03
2019-03-21T19:47:58.339Z,76.00
2019-03-21T19:50:28.843Z,70.30
2019-03-21T19:52:59.832Z,67.83
2019-03-21T19:55:31.393Z,77.17
2019-03-21T19:58:02.197Z,65.47
2019-03-21T20:00:32.804Z,83.47
2019-03-21T20:03:03.157Z,75.20
2019-03-21T20:05:33.890Z,79.75
2019-03-21T20:08:04.835Z,78.70
2019-03-21T20:10:35.207Z,71.35
2019-03-21T20:13:05.571Z,67.80
2019-03-21T20:15:36.544Z,70.60
2019-03-21T20:18:07.259Z,67.75
2019-03-21T20:20:37.989Z,64.77
2019-03-21T20:23:09.069Z,73.92
2019-03-21T20:25:43.167Z,71.25
2019-03-21T20:28:11.918Z,69.42
2019-03-21T20:30:42.280Z,66.87
2019-03-21T20:33:12.607Z,70.62
2019-03-21T20:35:43.374Z,70.83
2019-03-21T20:38:13.795Z,73.87
2019-03-21T20:40:44.165Z,71.00
2019-03-21T20:43:14.842Z,92.12
2019-03-21T20:45:45.502Z,75.20
2019-03-21T20:48:15.901Z,75.65
2019-03-21T20:50:46.648Z,86.60
2019-03-21T20:53:17.027Z,99.10
2019-03-21T20:55:53.585Z,78.72
2019-03-21T20:58:19.766Z,69.40
2019-03-21T21:00:50.255Z,73.17
2019-03-21T21:03:20.888Z,79.22
2019-03-21T21:05:51.259Z,77.67
2019-03-21T21:08:21.892Z,79.82
2019-03-21T21:10:52.649Z,74.80
2019-03-21T21:13:23.019Z,72.17
2019-03-21T21:15:53.371Z,74.53
2019-03-21T21:18:24.110Z,73.47
2019-03-21T21:20:54.540Z,78.92
2019-03-21T21:23:25.154Z,78.35
2019-03-21T21:26:05.085Z,73.62
2019-03-21T21:28:28.292Z,72.00
2019-03-21T21:30:58.959Z,76.77
2019-03-21T21:33:29.785Z,71.15
2019-03-21T21:36:00.590Z,78.02
2019-03-21T21:38:31.136Z,74.37
2019-03-21T21:41:01.771Z,69.35
2019-03-21T21:43:32.813Z,66.37
2019-03-21T21:46:04.477Z,72.15
2019-03-21T21:48:34.823Z,72.90
2019-03-21T21:51:05.191Z,81.32
2019-03-21T21:53:35.560Z,70.65
2019-03-21T21:56:17.247Z,82.08
2019-03-21T21:58:38.758Z,75.30
2019-03-21T22:01:09.403Z,70.70
2019-03-21T22:03:40.032Z,71.95
2019-03-21T22:06:10.758Z,88.40
2019-03-21T22:08:41.817Z,63.68
2019-03-21T22:11:12.497Z,65.78
2019-03-21T22:13:42.904Z,69.75
2019-03-21T22:16:13.296Z,71.70
2019-03-21T22:18:43.943Z,75.35
2019-03-21T22:21:14.576Z,66.17
2019-03-21T22:23:44.925Z,74.62
2019-03-21T22:26:15.615Z,60.75
2019-03-21T22:28:45.979Z,72.70
2019-03-21T22:31:16.691Z,69.27
2019-03-21T22:33:47.071Z,60.48
2019-03-21T22:36:17.813Z,65.17
2019-03-21T22:38:48.812Z,63.60
2019-03-21T22:41:19.475Z,66.77
2019-03-21T22:43:50.184Z,68.75
2019-03-21T22:46:20.561Z,67.25
2019-03-21T22:48:50.928Z,65.05
2019-03-21T22:51:22.063Z,57.85
2019-03-21T22:53:52.442Z,60.60
2019-03-21T22:56:23.046Z,57.98
2019-03-21T22:58:53.782Z,61.53
2019-03-21T23:01:24.220Z,60.00
2019-03-21T23:03:54.592Z,59.05
2019-03-21T23:06:24.928Z,67.50
2019-03-21T23:08:55.320Z,69.27
2019-03-21T23:11:26.024Z,62.95
2019-03-21T23:13:56.398Z,64.75
2019-03-21T23:16:27.521Z,60.92
2019-03-21T23:18:58.533Z,67.90
2019-03-21T23:21:29.155Z,60.12
2019-03-21T23:23:59.959Z,60.83
2019-03-21T23:26:30.513Z,65.30
2019-03-21T23:29:00.871Z,66.67
2019-03-21T23:31:31.936Z,67.40
2019-03-21T23:34:02.782Z,60.23
2019-03-21T23:36:33.808Z,72.25
2019-03-21T23:39:04.851Z,64.15
2019-03-21T23:41:35.233Z,68.22
2019-03-21T23:44:05.565Z,65.42
2019-03-21T23:46:36.645Z,61.63
2019-03-21T23:49:06.990Z,63.23
2019-03-21T23:51:37.702Z,66.40
2019-03-21T23:54:08.038Z,65.08
2019-03-21T23:56:39.172Z,66.67
2019-03-21T23:59:10.213Z,56.65
